Time;durP1;ratioP1;P1;durP2;ratioP2;P2;SDS_P1;SDS_P2;PMS_P1;PMS_P2;Temp;Humidity;BMP_temperature;BMP_pressure;BME280_temperature;BME280_humidity;BME280_pressure;Samples;Min_cycle;Max_cycle;Signal;HPM_P1;HPM_P2
2024/02/10 07:26:43;;;;;;;8.82;3.92;;;;;;;;;;1100592;28;21317;-80
2024/02/10 07:29:11;;;;;;;7.38;2.33;;;;;;;;;;4734593;30;20099;-80
2024/02/10 07:31:38;;;;;;;6.60;1.73;;;;;;;;;;4720189;30;20459;-81
2024/02/10 09:22:43;;;;;;;8.65;3.28;;;;;;;;;;4734828;24;20060;-82
2024/02/10 09:25:36;;;;;;;11.95;1.88;;;;;;;;;;4736489;30;20085;-83
2024/02/10 09:28:29;;;;;;;6.55;2.33;;;;;;;;;;4745585;30;20048;-83
2024/02/10 09:37:55;;;;;;;8.25;2.72;;;;;;;;;;4750136;24;20130;-82
2024/02/10 09:40:23;;;;;;;8.48;2.25;;;;;;;;;;4751727;30;20857;-81
2024/02/10 09:42:53;;;;;;;6.40;1.80;;;;;;;;;;4746415;30;20144;-81
2024/02/10 10:15:11;;;;;;;9.20;3.40;;;;;;;;;;4725511;30;20063;-83
2024/02/10 10:41:51;;;;;;;6.30;2.22;;;;;;;;;;5034720;24;20048;-82
2024/02/10 11:21:08;;;;;;;4.95;1.38;;;;;;;;;;3275041;24;20064;-83
2024/02/10 11:23:37;;;;;;;6.00;1.92;;;;;;;;;;4732466;30;20036;-83
2024/02/10 11:26:05;;;;;;;5.72;1.65;;;;;;;;;;4735827;30;20048;-81
2024/02/10 11:28:37;;;;;;;4.25;1.55;;;;;;;;;;4742436;30;20051;-82
2024/02/10 11:31:10;;;;;;;6.43;1.98;;;;;;;;;;4744046;30;20060;-82
2024/02/10 11:33:38;;;;;;;6.28;2.42;;;;;;;;;;4745345;30;20504;-83
2024/02/10 11:36:08;;;;;;;6.63;2.33;;;;;;;;;;4747402;30;20102;-81
2024/02/10 11:38:35;;;;;;;6.25;1.90;;;;;;;;;;4737601;30;20040;-81
2024/02/10 11:41:02;;;;;;;4.63;1.80;;;;;;;;;;4749710;30;20056;-81
2024/02/10 11:43:28;;;;;;;4.28;1.38;;;;;;;;;;4748948;30;20105;-81
2024/02/10 11:45:54;;;;;;;7.20;2.42;;;;;;;;;;4743630;30;20056;-80
2024/02/10 11:48:21;;;;;;;11.73;1.73;;;;;;;;;;4739035;30;20032;-80
2024/02/10 11:50:48;;;;;;;10.95;3.42;;;;;;;;;;4719429;30;20052;-82
2024/02/10 11:53:19;;;;;;;6.13;2.10;;;;;;;;;;4741527;30;20036;-81
2024/02/10 11:55:47;;;;;;;6.38;2.03;;;;;;;;;;4743707;30;20048;-82
2024/02/10 11:58:18;;;;;;;7.13;2.80;;;;;;;;;;4740595;30;20032;-81
2024/02/10 12:00:44;;;;;;;6.25;2.35;;;;;;;;;;4734898;30;20071;-81
2024/02/10 12:03:13;;;;;;;6.32;2.55;;;;;;;;;;4739099;30;20494;-82
2024/02/10 12:05:40;;;;;;;7.28;2.60;;;;;;;;;;4742694;30;20065;-81
2024/02/10 12:08:09;;;;;;;6.57;2.38;;;;;;;;;;4745531;30;20044;-82
2024/02/10 12:10:39;;;;;;;6.53;2.17;;;;;;;;;;4732105;30;20047;-81
2024/02/10 12:13:05;;;;;;;142.98;83.78;;;;;;;;;;4742544;30;20105;-81
2024/02/10 12:15:32;;;;;;;4.78;2.05;;;;;;;;;;4750326;30;20070;-81
2024/02/10 12:17:59;;;;;;;4.68;1.50;;;;;;;;;;4724588;30;20037;-81
2024/02/10 12:20:25;;;;;;;9.65;3.38;;;;;;;;;;4728561;30;20102;-82
2024/02/10 12:22:53;;;;;;;9.98;2.40;;;;;;;;;;4732967;30;20127;-81
2024/02/10 12:25:22;;;;;;;9.43;2.05;;;;;;;;;;4744994;30;20068;-81
2024/02/10 12:27:48;;;;;;;10.57;2.80;;;;;;;;;;4745441;30;20053;-81
2024/02/10 12:30:14;;;;;;;7.45;2.78;;;;;;;;;;4749019;30;20048;-79
2024/02/10 12:32:40;;;;;;;8.35;2.40;;;;;;;;;;4748602;30;20138;-79
2024/02/10 12:35:09;;;;;;;9.40;3.00;;;;;;;;;;4751717;30;20060;-81
2024/02/10 12:37:35;;;;;;;8.43;2.38;;;;;;;;;;4733877;30;20131;-80
2024/02/10 12:40:03;;;;;;;6.82;2.45;;;;;;;;;;4745289;30;20127;-80
2024/02/10 12:42:30;;;;;;;8.48;2.92;;;;;;;;;;4751175;30;20071;-80
2024/02/10 12:44:56;;;;;;;14.77;3.15;;;;;;;;;;4745399;30;20054;-83
2024/02/10 12:47:22;;;;;;;12.85;3.50;;;;;;;;;;4730254;30;20036;-82
2024/02/10 12:49:50;;;;;;;7.25;2.47;;;;;;;;;;4749717;30;20063;-81
2024/02/10 12:52:16;;;;;;;7.57;2.58;;;;;;;;;;4747392;30;20046;-82
2024/02/10 12:54:42;;;;;;;10.30;3.22;;;;;;;;;;4738713;30;20052;-82
2024/02/10 12:57:08;;;;;;;5.97;3.10;;;;;;;;;;4740821;30;20048;-82
2024/02/10 12:59:36;;;;;;;8.95;4.05;;;;;;;;;;4751109;30;20832;-83
2024/02/10 13:02:02;;;;;;;11.95;3.72;;;;;;;;;;4731220;30;20052;-82
2024/02/10 13:04:35;;;;;;;11.02;3.97;;;;;;;;;;4731345;30;20060;-81
2024/02/10 13:07:01;;;;;;;11.30;2.97;;;;;;;;;;4743439;30;20036;-84
2024/02/10 13:09:27;;;;;;;14.68;4.75;;;;;;;;;;4745596;30;20044;-82
2024/02/10 13:11:53;;;;;;;13.18;3.25;;;;;;;;;;4737846;30;20122;-83
2024/02/10 13:14:19;;;;;;;11.80;2.78;;;;;;;;;;4740368;30;20047;-83
2024/02/10 13:16:45;;;;;;;8.18;2.42;;;;;;;;;;4751597;30;20085;-83
2024/02/10 13:19:13;;;;;;;11.10;2.95;;;;;;;;;;4751743;30;20044;-83
2024/02/10 13:21:40;;;;;;;9.10;3.13;;;;;;;;;;4754365;30;20110;-83
2024/02/10 13:24:07;;;;;;;9.70;3.88;;;;;;;;;;4736916;30;20052;-83
2024/02/10 13:26:34;;;;;;;8.52;2.28;;;;;;;;;;4745545;30;20044;-83
2024/02/10 13:29:00;;;;;;;7.95;3.67;;;;;;;;;;4732824;30;20626;-83
2024/02/10 13:31:26;;;;;;;8.48;2.67;;;;;;;;;;4734352;30;20098;-84
2024/02/10 13:33:53;;;;;;;5.70;2.03;;;;;;;;;;4750092;30;20928;-83
2024/02/10 13:36:21;;;;;;;7.90;2.50;;;;;;;;;;4748868;30;20076;-83
2024/02/10 14:00:38;;;;;;;11.48;2.20;;;;;;;;;;4740435;30;20484;-83
2024/02/10 14:03:05;;;;;;;314.80;287.27;;;;;;;;;;4733881;30;20517;-83
2024/02/10 14:11:19;;;;;;;9.15;2.75;;;;;;;;;;4737691;30;20846;-84
2024/02/10 14:13:50;;;;;;;5.97;2.28;;;;;;;;;;4717215;30;20086;-83
2024/02/10 14:16:21;;;;;;;6.45;2.10;;;;;;;;;;4741788;30;20049;-83
2024/02/10 14:18:47;;;;;;;10.77;3.10;;;;;;;;;;4743594;30;20072;-83
2024/02/10 14:21:17;;;;;;;10.20;2.88;;;;;;;;;;4735557;30;20076;-83
2024/02/10 14:23:45;;;;;;;8.52;2.83;;;;;;;;;;4746783;30;20531;-83
2024/02/10 14:26:17;;;;;;;9.10;2.88;;;;;;;;;;4730023;30;20411;-83
2024/02/10 14:28:49;;;;;;;;;;;;;;;;;;4731417;30;20040;-83
2024/02/10 14:31:18;;;;;;;7.93;2.35;;;;;;;;;;4750959;30;19922;-82
2024/02/10 14:33:46;;;;;;;6.45;2.03;;;;;;;;;;4730392;30;20052;-83
2024/02/10 14:36:38;;;;;;;8.20;3.00;;;;;;;;;;4736865;30;20391;-82
2024/02/10 14:39:13;;;;;;;6.95;2.50;;;;;;;;;;4738303;30;20044;-83
2024/02/10 14:41:43;;;;;;;8.07;2.30;;;;;;;;;;4721609;30;20061;-83
2024/02/10 14:44:10;;;;;;;13.95;3.53;;;;;;;;;;4742257;30;20467;-83
2024/02/10 14:46:45;;;;;;;8.75;2.72;;;;;;;;;;4720754;30;20047;-83
2024/02/10 14:49:14;;;;;;;7.30;2.95;;;;;;;;;;4727524;30;20065;-83
2024/02/10 14:51:40;;;;;;;10.15;3.95;;;;;;;;;;4736838;30;20860;-83
2024/02/10 14:54:10;;;;;;;9.95;3.35;;;;;;;;;;4740674;30;20048;-83
2024/02/10 14:56:38;;;;;;;8.65;3.35;;;;;;;;;;4739169;30;21924;-83
2024/02/10 14:59:04;;;;;;;8.55;2.88;;;;;;;;;;4732759;30;20052;-83
2024/02/10 15:01:30;;;;;;;6.80;1.95;;;;;;;;;;4747914;30;20052;-82
2024/02/10 15:03:56;;;;;;;10.23;3.15;;;;;;;;;;4743778;30;20373;-83
2024/02/10 15:06:23;;;;;;;14.82;2.55;;;;;;;;;;4750157;30;20065;-83
2024/02/10 15:08:52;;;;;;;5.47;2.10;;;;;;;;;;4741270;30;20052;-83
2024/02/10 15:11:19;;;;;;;9.55;3.47;;;;;;;;;;4729750;30;20050;-82
2024/02/10 15:13:45;;;;;;;8.15;2.15;;;;;;;;;;4746561;30;20084;-82
2024/02/10 15:16:21;;;;;;;7.40;2.13;;;;;;;;;;4740527;30;20117;-82
2024/02/10 15:18:53;;;;;;;8.30;2.33;;;;;;;;;;4742207;30;20052;-82
2024/02/10 15:21:20;;;;;;;6.45;1.70;;;;;;;;;;4749037;30;20114;-82
2024/02/10 15:23:46;;;;;;;11.55;2.47;;;;;;;;;;4739082;30;20064;-82
2024/02/10 15:26:12;;;;;;;6.25;2.45;;;;;;;;;;4732794;30;20072;-83
2024/02/10 15:28:40;;;;;;;6.80;2.40;;;;;;;;;;4741214;30;20041;-82
2024/02/10 15:31:06;;;;;;;9.25;2.38;;;;;;;;;;4745508;30;20064;-83
2024/02/10 15:33:32;;;;;;;10.48;4.00;;;;;;;;;;4724775;30;20072;-81
2024/02/10 15:35:58;;;;;;;6.75;2.28;;;;;;;;;;4740810;30;20851;-81
2024/02/10 15:38:25;;;;;;;8.05;2.33;;;;;;;;;;4750923;30;20044;-81
2024/02/10 15:40:58;;;;;;;6.30;2.42;;;;;;;;;;4745838;30;20048;-81
2024/02/10 15:43:28;;;;;;;8.45;2.78;;;;;;;;;;4746776;30;20047;-80
2024/02/10 15:45:59;;;;;;;6.57;2.55;;;;;;;;;;4736541;30;20070;-81
2024/02/10 15:48:25;;;;;;;8.93;3.17;;;;;;;;;;4734688;30;20057;-81
2024/02/10 15:50:55;;;;;;;8.88;2.70;;;;;;;;;;4744710;30;20546;-81
2024/02/10 15:53:26;;;;;;;10.43;2.85;;;;;;;;;;4732611;30;20059;-82
2024/02/10 15:55:55;;;;;;;8.60;2.80;;;;;;;;;;4746226;30;20044;-81
2024/02/10 15:58:22;;;;;;;9.43;4.10;;;;;;;;;;4750599;30;20420;-81
2024/02/10 16:00:49;;;;;;;9.95;3.45;;;;;;;;;;4734812;30;20107;-81
2024/02/10 16:03:18;;;;;;;7.85;2.17;;;;;;;;;;4751455;30;20711;-81
2024/02/10 16:05:51;;;;;;;7.15;2.65;;;;;;;;;;4747506;30;20048;-83
2024/02/10 16:08:17;;;;;;;11.48;3.78;;;;;;;;;;4740837;30;20063;-83
2024/02/10 16:10:45;;;;;;;7.00;2.78;;;;;;;;;;4741977;30;20048;-83
2024/02/10 16:13:11;;;;;;;13.60;4.05;;;;;;;;;;4738899;30;20036;-81
2024/02/10 16:15:42;;;;;;;6.45;2.58;;;;;;;;;;4726405;30;20060;-86
2024/02/10 16:21:26;;;;;;;10.30;3.10;;;;;;;;;;4757642;24;20098;-87
2024/02/10 16:24:02;;;;;;;6.30;2.38;;;;;;;;;;4743298;30;20044;-86
2024/02/10 16:26:31;;;;;;;8.40;2.90;;;;;;;;;;4742483;30;20553;-86
2024/02/10 16:29:38;;;;;;;13.85;3.35;;;;;;;;;;4748788;30;20068;-87
2024/02/10 16:32:06;;;;;;;11.68;2.97;;;;;;;;;;4745049;30;20142;-84
2024/02/10 16:34:38;;;;;;;9.80;4.60;;;;;;;;;;4746936;30;20051;-87
2024/02/10 16:37:06;;;;;;;10.73;4.00;;;;;;;;;;4740784;30;20059;-83
2024/02/10 16:39:32;;;;;;;9.55;3.85;;;;;;;;;;4749271;30;20495;-83
2024/02/10 16:41:58;;;;;;;12.40;4.13;;;;;;;;;;4754200;30;20400;-82
2024/02/10 16:44:25;;;;;;;9.40;3.90;;;;;;;;;;4751064;30;20040;-82
2024/02/10 16:46:51;;;;;;;8.88;3.78;;;;;;;;;;4747794;30;20535;-82
2024/02/10 16:49:22;;;;;;;10.73;3.75;;;;;;;;;;4743218;30;20139;-83
2024/02/10 16:51:49;;;;;;;13.18;6.60;;;;;;;;;;4742854;30;20055;-83
2024/02/10 16:54:16;;;;;;;9.23;3.92;;;;;;;;;;4756348;30;20040;-83
2024/02/10 16:56:42;;;;;;;19.67;4.90;;;;;;;;;;4739431;30;20174;-83
2024/02/10 16:59:08;;;;;;;14.93;5.78;;;;;;;;;;4735781;30;20054;-83
2024/02/10 17:01:34;;;;;;;14.55;4.38;;;;;;;;;;4751604;30;20057;-83
2024/02/10 17:04:03;;;;;;;9.63;4.20;;;;;;;;;;4746461;30;20437;-83
2024/02/10 17:06:40;;;;;;;10.52;3.58;;;;;;;;;;4741945;30;20908;-85
2024/02/10 17:09:08;;;;;;;9.30;3.30;;;;;;;;;;4757915;30;20120;-83
2024/02/10 17:11:36;;;;;;;13.55;4.85;;;;;;;;;;4744333;30;20053;-83
2024/02/10 17:14:05;;;;;;;19.02;4.43;;;;;;;;;;4742413;30;20101;-83
2024/02/10 17:16:31;;;;;;;12.60;4.95;;;;;;;;;;4742154;30;20511;-83
2024/02/10 17:18:57;;;;;;;9.88;3.45;;;;;;;;;;4734154;30;20061;-84
2024/02/10 17:21:23;;;;;;;9.55;3.50;;;;;;;;;;4746955;30;20060;-84
2024/02/10 17:23:52;;;;;;;10.80;5.45;;;;;;;;;;4743182;30;20904;-84
2024/02/10 17:26:19;;;;;;;9.60;3.25;;;;;;;;;;4758891;30;20051;-84
2024/02/10 17:28:45;;;;;;;11.77;4.28;;;;;;;;;;4739111;30;20056;-84
2024/02/10 17:31:21;;;;;;;11.65;4.20;;;;;;;;;;4746483;30;20052;-84
2024/02/10 17:33:50;;;;;;;10.95;4.03;;;;;;;;;;4742606;30;20055;-84
2024/02/10 17:36:22;;;;;;;8.15;2.83;;;;;;;;;;4754827;30;20055;-84
2024/02/10 17:38:48;;;;;;;6.07;2.30;;;;;;;;;;4741340;30;20040;-82
2024/02/10 17:41:15;;;;;;;7.85;2.72;;;;;;;;;;4749775;30;20051;-83
2024/02/10 17:43:41;;;;;;;7.15;3.13;;;;;;;;;;4736952;30;20041;-83
2024/02/10 17:46:07;;;;;;;8.25;3.72;;;;;;;;;;4744131;30;20496;-84
2024/02/10 17:48:34;;;;;;;9.27;3.42;;;;;;;;;;4740580;30;20056;-82
2024/02/10 17:51:00;;;;;;;6.65;2.47;;;;;;;;;;4741705;30;20080;-83
2024/02/10 17:53:26;;;;;;;9.95;3.28;;;;;;;;;;4741665;30;20408;-82
2024/02/10 17:55:58;;;;;;;7.90;2.20;;;;;;;;;;4735460;30;20048;-83
2024/02/10 17:58:28;;;;;;;4.82;1.75;;;;;;;;;;4750232;30;20067;-83
2024/02/10 18:00:57;;;;;;;6.72;2.65;;;;;;;;;;4748470;30;20048;-83
2024/02/10 18:03:25;;;;;;;13.32;2.72;;;;;;;;;;4731903;30;20045;-83
2024/02/10 18:05:55;;;;;;;13.82;4.50;;;;;;;;;;4749600;30;20052;-83
2024/02/10 18:08:21;;;;;;;14.45;4.70;;;;;;;;;;4741742;30;20037;-83
2024/02/10 18:10:47;;;;;;;9.02;2.75;;;;;;;;;;4732382;30;20699;-84
2024/02/10 18:13:14;;;;;;;11.23;4.03;;;;;;;;;;4730393;30;20112;-83
2024/02/10 18:15:40;;;;;;;12.50;4.55;;;;;;;;;;4736056;30;20083;-83
2024/02/10 18:18:09;;;;;;;10.52;3.55;;;;;;;;;;4742614;30;20048;-83
2024/02/10 18:20:36;;;;;;;19.20;6.20;;;;;;;;;;4733898;30;20118;-83
2024/02/10 18:23:02;;;;;;;13.15;4.13;;;;;;;;;;4744678;30;20055;-83
2024/02/10 18:25:28;;;;;;;17.88;5.07;;;;;;;;;;4736769;30;20051;-83
2024/02/10 18:27:55;;;;;;;11.57;3.75;;;;;;;;;;4735164;30;20391;-83
2024/02/10 18:30:21;;;;;;;9.52;4.50;;;;;;;;;;4743593;30;20609;-83
2024/02/10 18:32:48;;;;;;;16.38;5.00;;;;;;;;;;4742744;30;20051;-84
2024/02/10 18:35:15;;;;;;;14.82;4.80;;;;;;;;;;4737690;30;20079;-83
2024/02/10 18:37:41;;;;;;;20.52;3.60;;;;;;;;;;4751347;30;20110;-84
2024/02/10 18:40:10;;;;;;;9.95;2.88;;;;;;;;;;4746674;30;20062;-83
2024/02/10 18:42:36;;;;;;;10.02;3.58;;;;;;;;;;4736589;30;20052;-83
2024/02/10 18:45:05;;;;;;;7.80;3.58;;;;;;;;;;4746986;30;20126;-84
2024/02/10 18:47:31;;;;;;;7.18;3.22;;;;;;;;;;4730807;30;20574;-84
2024/02/10 18:49:57;;;;;;;8.98;3.20;;;;;;;;;;4742641;30;20130;-84
2024/02/10 18:52:24;;;;;;;10.70;4.25;;;;;;;;;;4738038;30;20052;-84
2024/02/10 18:54:50;;;;;;;8.48;3.67;;;;;;;;;;4756753;30;20054;-84
2024/02/10 18:57:16;;;;;;;11.50;3.50;;;;;;;;;;4738531;30;20686;-84
2024/02/10 18:59:46;;;;;;;15.43;4.22;;;;;;;;;;4737486;30;20147;-84
2024/02/10 19:02:18;;;;;;;17.55;4.82;;;;;;;;;;4747595;30;20483;-84
2024/02/10 19:04:47;;;;;;;18.10;4.13;;;;;;;;;;4750785;30;20052;-85
2024/02/10 19:07:15;;;;;;;7.47;4.60;;;;;;;;;;4738964;30;20399;-85
2024/02/10 19:09:47;;;;;;;7.07;2.72;;;;;;;;;;4751169;30;20047;-84
2024/02/10 19:12:17;;;;;;;2.20;0.90;;;;;;;;;;4755635;30;20055;-85
2024/02/10 19:14:43;;;;;;;0.52;0.38;;;;;;;;;;4739346;30;20129;-84
2024/02/10 19:17:09;;;;;;;1.08;0.17;;;;;;;;;;4739773;30;20055;-85
2024/02/10 19:19:38;;;;;;;0.28;0.17;;;;;;;;;;4728304;30;20076;-84
2024/02/10 19:22:04;;;;;;;0.20;0.10;;;;;;;;;;4720458;30;20499;-84
2024/02/10 19:24:33;;;;;;;0.17;0.10;;;;;;;;;;4743019;30;20040;-85
2024/02/10 19:27:01;;;;;;;1.17;0.00;;;;;;;;;;4740714;30;20056;-84
2024/02/10 19:29:27;;;;;;;0.05;0.00;;;;;;;;;;4743741;30;20646;-84
2024/02/10 19:31:54;;;;;;;0.17;0.10;;;;;;;;;;4739435;30;20159;-84
2024/02/10 19:34:21;;;;;;;0.08;0.08;;;;;;;;;;4740467;30;20052;-84
2024/02/10 19:36:50;;;;;;;0.10;0.00;;;;;;;;;;4742606;30;20055;-84
2024/02/10 19:39:19;;;;;;;0.00;0.00;;;;;;;;;;4741439;30;20048;-84
2024/02/10 19:41:46;;;;;;;0.55;0.00;;;;;;;;;;4730950;30;20057;-84
2024/02/10 19:44:21;;;;;;;0.00;0.00;;;;;;;;;;4739552;30;20064;-84
2024/02/10 19:46:48;;;;;;;0.90;0.10;;;;;;;;;;4746903;30;20052;-84
2024/02/10 19:49:19;;;;;;;1.50;0.22;;;;;;;;;;4731666;30;20048;-84
2024/02/10 19:51:53;;;;;;;1.63;0.30;;;;;;;;;;4738412;30;20526;-83
2024/02/10 19:54:20;;;;;;;0.40;0.10;;;;;;;;;;4738017;30;20310;-84
2024/02/10 19:56:46;;;;;;;0.85;0.30;;;;;;;;;;4744316;30;20056;-84
2024/02/10 19:59:13;;;;;;;0.95;0.20;;;;;;;;;;4742465;30;20072;-84
2024/02/10 20:01:44;;;;;;;0.55;0.08;;;;;;;;;;4737893;30;20060;-84
2024/02/10 20:04:11;;;;;;;5.57;5.05;;;;;;;;;;4744397;30;20044;-84
2024/02/10 20:06:38;;;;;;;6.45;0.08;;;;;;;;;;4733094;30;20040;-84
2024/02/10 20:09:07;;;;;;;0.00;0.00;;;;;;;;;;4759089;30;20633;-84
2024/02/10 20:11:34;;;;;;;1.35;0.00;;;;;;;;;;4731190;30;20055;-83
2024/02/10 20:14:00;;;;;;;5.82;3.63;;;;;;;;;;4724899;30;20041;-84
2024/02/10 20:16:28;;;;;;;0.10;0.05;;;;;;;;;;4735743;30;20060;-84
2024/02/10 20:18:55;;;;;;;1.42;0.10;;;;;;;;;;4733144;30;20741;-83
2024/02/10 20:21:23;;;;;;;1.02;0.20;;;;;;;;;;4740659;30;20506;-84
2024/02/10 20:23:49;;;;;;;0.00;0.00;;;;;;;;;;4762457;30;20047;-84
2024/02/10 20:26:15;;;;;;;1.75;0.10;;;;;;;;;;4729902;30;20056;-84
2024/02/10 20:28:42;;;;;;;0.00;0.00;;;;;;;;;;4730319;30;20080;-84
2024/02/10 20:31:18;;;;;;;0.00;0.00;;;;;;;;;;4738451;30;20492;-84
2024/02/10 20:33:52;;;;;;;0.75;0.30;;;;;;;;;;4735728;30;20047;-84
2024/02/10 20:36:19;;;;;;;0.00;0.00;;;;;;;;;;4751620;30;20076;-83
2024/02/10 20:38:45;;;;;;;25.13;10.43;;;;;;;;;;4723337;30;20041;-84
2024/02/10 20:41:13;;;;;;;0.08;0.00;;;;;;;;;;4740383;30;20160;-84
2024/02/10 20:43:41;;;;;;;0.50;0.15;;;;;;;;;;4740833;30;20119;-84
2024/02/10 20:46:07;;;;;;;0.00;0.00;;;;;;;;;;4751640;30;20044;-84
2024/02/10 20:48:33;;;;;;;0.00;0.00;;;;;;;;;;4729426;30;20056;-83
2024/02/10 20:50:59;;;;;;;0.00;0.00;;;;;;;;;;4731847;30;20147;-84
2024/02/10 20:53:25;;;;;;;0.00;0.00;;;;;;;;;;4736112;30;20048;-83
2024/02/10 20:55:51;;;;;;;0.08;0.00;;;;;;;;;;4761681;30;20634;-84
2024/02/10 20:58:19;;;;;;;0.08;0.08;;;;;;;;;;4746556;30;20052;-84
2024/02/10 21:00:49;;;;;;;0.77;0.40;;;;;;;;;;4736235;30;20045;-83
2024/02/10 21:03:17;;;;;;;0.10;0.10;;;;;;;;;;4740646;30;20047;-83
2024/02/10 21:05:44;;;;;;;0.00;0.00;;;;;;;;;;4726441;30;20451;-82
2024/02/10 21:08:10;;;;;;;1.08;0.10;;;;;;;;;;4737416;30;20078;-82
2024/02/10 21:10:36;;;;;;;0.10;0.03;;;;;;;;;;4746630;30;20071;-82
2024/02/10 21:13:02;;;;;;;0.25;0.00;;;;;;;;;;4743029;30;20078;-82
2024/02/10 21:15:28;;;;;;;0.30;0.00;;;;;;;;;;4735953;30;20580;-81
2024/02/10 21:17:54;;;;;;;0.20;0.10;;;;;;;;;;4728048;30;20075;-83
2024/02/10 21:20:20;;;;;;;0.00;0.00;;;;;;;;;;4748782;30;20052;-82
2024/02/10 21:22:46;;;;;;;0.13;0.03;;;;;;;;;;4746156;30;20065;-82
2024/02/10 21:25:13;;;;;;;1.17;0.20;;;;;;;;;;4748022;30;20086;-82
2024/02/10 21:27:42;;;;;;;5.57;1.05;;;;;;;;;;4746641;30;20044;-82
2024/02/10 21:30:10;;;;;;;0.25;0.08;;;;;;;;;;4737438;30;20496;-81
2024/02/10 21:32:38;;;;;;;2.72;0.30;;;;;;;;;;4747235;30;20173;-82
2024/02/10 21:35:04;;;;;;;5.90;0.85;;;;;;;;;;4747632;30;20127;-81
2024/02/10 21:37:31;;;;;;;4.85;0.90;;;;;;;;;;4741969;30;20402;-82
2024/02/10 21:39:57;;;;;;;0.55;0.28;;;;;;;;;;4748266;30;20040;-81
2024/02/10 21:42:23;;;;;;;2.25;0.30;;;;;;;;;;4748422;30;20131;-81
2024/02/10 21:44:50;;;;;;;1.05;0.40;;;;;;;;;;4744976;30;20040;-81
2024/02/10 21:47:16;;;;;;;1.35;0.25;;;;;;;;;;4757658;30;20054;-82
2024/02/10 21:49:43;;;;;;;2.08;0.52;;;;;;;;;;4756588;30;20101;-82
2024/02/10 21:52:10;;;;;;;2.17;0.52;;;;;;;;;;4746022;30;20044;-81
2024/02/10 21:54:37;;;;;;;2.85;1.02;;;;;;;;;;4750271;30;20120;-82
2024/02/10 21:57:04;;;;;;;3.50;0.70;;;;;;;;;;4754929;30;20040;-81
2024/02/10 21:59:33;;;;;;;1.08;0.38;;;;;;;;;;4737422;30;20044;-82
2024/02/10 22:02:06;;;;;;;5.93;0.90;;;;;;;;;;4742478;30;20044;-82
2024/02/10 22:04:32;;;;;;;2.72;0.60;;;;;;;;;;4750234;30;20134;-82
2024/02/10 22:06:58;;;;;;;3.38;0.60;;;;;;;;;;4743137;30;20123;-81
2024/02/10 22:09:27;;;;;;;2.78;0.88;;;;;;;;;;4742426;30;20048;-81
2024/02/10 22:11:54;;;;;;;3.40;1.20;;;;;;;;;;4740752;30;20044;-82
2024/02/10 22:14:20;;;;;;;3.85;1.00;;;;;;;;;;4760751;30;20051;-82
2024/02/10 22:16:50;;;;;;;4.53;0.90;;;;;;;;;;4752439;30;20099;-82
2024/02/10 22:19:18;;;;;;;2.92;0.90;;;;;;;;;;4736582;30;20065;-82
2024/02/10 22:21:44;;;;;;;3.17;1.38;;;;;;;;;;4750168;30;20110;-82
2024/02/10 22:24:11;;;;;;;4.07;1.30;;;;;;;;;;4744507;30;20064;-81
2024/02/10 22:26:37;;;;;;;5.85;2.15;;;;;;;;;;4763283;30;20134;-81
2024/02/10 22:29:03;;;;;;;3.55;0.95;;;;;;;;;;4745832;30;20044;-82
2024/02/10 22:31:35;;;;;;;3.03;0.85;;;;;;;;;;4739393;30;20052;-81
2024/02/10 22:34:04;;;;;;;1.95;0.28;;;;;;;;;;4738942;30;20772;-82
2024/02/10 22:36:32;;;;;;;4.20;0.70;;;;;;;;;;4738795;30;20076;-82
2024/02/10 22:38:59;;;;;;;1.33;0.70;;;;;;;;;;4720400;30;20063;-81
2024/02/10 22:41:25;;;;;;;1.52;0.20;;;;;;;;;;4741590;30;20040;-82
2024/02/10 22:43:54;;;;;;;6.70;3.83;;;;;;;;;;4733390;30;20045;-81
2024/02/10 22:46:20;;;;;;;0.80;0.28;;;;;;;;;;4740860;30;20459;-81
2024/02/10 22:48:46;;;;;;;0.90;0.30;;;;;;;;;;4734966;30;20061;-81
2024/02/10 22:51:15;;;;;;;1.05;0.45;;;;;;;;;;4743174;30;20036;-82
2024/02/10 22:53:41;;;;;;;3.53;0.52;;;;;;;;;;4751240;30;20055;-81
2024/02/10 22:56:11;;;;;;;1.27;0.20;;;;;;;;;;4750040;30;20079;-81
2024/02/10 22:58:37;;;;;;;3.47;0.20;;;;;;;;;;4741288;30;20053;-82
2024/02/10 23:01:05;;;;;;;0.32;0.20;;;;;;;;;;4721046;30;20040;-82
2024/02/10 23:03:31;;;;;;;0.70;0.25;;;;;;;;;;4737065;30;20408;-81
2024/02/10 23:05:58;;;;;;;0.95;0.20;;;;;;;;;;4735743;30;20059;-82
2024/02/10 23:08:25;;;;;;;1.17;0.55;;;;;;;;;;4749410;30;20040;-82
2024/02/10 23:10:51;;;;;;;0.40;0.10;;;;;;;;;;4739481;30;20055;-82
2024/02/10 23:13:21;;;;;;;0.28;0.10;;;;;;;;;;4739677;30;20139;-82
2024/02/10 23:15:47;;;;;;;0.98;0.30;;;;;;;;;;4735484;30;20048;-82
2024/02/10 23:18:15;;;;;;;0.93;0.20;;;;;;;;;;4756327;30;20124;-82
2024/02/10 23:20:47;;;;;;;0.93;0.40;;;;;;;;;;4741483;30;20037;-82
2024/02/10 23:23:17;;;;;;;5.85;0.95;;;;;;;;;;4732830;30;20064;-81
2024/02/10 23:25:43;;;;;;;2.45;0.50;;;;;;;;;;4735381;30;20040;-81
2024/02/10 23:28:14;;;;;;;1.45;0.63;;;;;;;;;;4735484;30;20541;-82
2024/02/10 23:30:42;;;;;;;1.15;0.40;;;;;;;;;;4748831;30;20040;-82
2024/02/10 23:33:08;;;;;;;0.95;0.45;;;;;;;;;;4739336;30;20048;-82
2024/02/10 23:35:34;;;;;;;4.00;0.80;;;;;;;;;;4740363;30;20106;-82
2024/02/10 23:38:02;;;;;;;3.13;0.50;;;;;;;;;;4736379;30;20182;-82
2024/02/10 23:40:30;;;;;;;1.25;0.30;;;;;;;;;;4735933;30;20072;-81
2024/02/10 23:42:59;;;;;;;1.35;0.50;;;;;;;;;;4754675;30;20439;-82
2024/02/10 23:45:26;;;;;;;1.75;1.30;;;;;;;;;;4732785;30;20545;-82
2024/02/10 23:47:53;;;;;;;0.32;0.20;;;;;;;;;;4736966;30;20122;-81
2024/02/10 23:50:19;;;;;;;22.42;11.07;;;;;;;;;;4742019;30;20037;-82
2024/02/10 23:52:45;;;;;;;1.75;1.00;;;;;;;;;;4748687;30;20048;-82
2024/02/10 23:55:13;;;;;;;4.82;0.57;;;;;;;;;;4730292;30;20054;-81
2024/02/10 23:57:39;;;;;;;1.48;0.43;;;;;;;;;;4734435;30;20066;-81
